createdAt,value
2022-11-16T00:01:22.753Z,97519.25
2022-11-16T00:04:26.496Z,97521.19
2022-11-16T00:07:30.497Z,97525.84
2022-11-16T00:10:34.539Z,97518.44
2022-11-16T00:13:41.273Z,97512.72
2022-11-16T00:16:46.127Z,97512.78
2022-11-16T00:19:50.142Z,97510.13
2022-11-16T00:22:53.536Z,97505.47
2022-11-16T00:25:57.308Z,97500.69
2022-11-16T00:29:00.837Z,97496.03
2022-11-16T00:32:06.588Z,97497.72
2022-11-16T00:35:11.210Z,97499.44
2022-11-16T00:38:15.359Z,97497.84
2022-11-16T00:41:20.384Z,97491.31
2022-11-16T00:44:24.226Z,97494.44
2022-11-16T00:47:29.589Z,97487.53
2022-11-16T00:50:33.597Z,97480.97
2022-11-16T00:53:37.660Z,97471.56
2022-11-16T00:56:41.921Z,97467.66
2022-11-16T00:59:45.462Z,97470.31
2022-11-16T01:02:52.622Z,97466.09
2022-11-16T01:06:01.903Z,97455.97
2022-11-16T01:09:05.818Z,97464.88
2022-11-16T01:12:10.936Z,97460.28
2022-11-16T01:15:15.278Z,97457.31
2022-11-16T01:18:20.149Z,97448.78
2022-11-16T01:21:24.922Z,97445.19
2022-11-16T01:24:29.045Z,97443.13
2022-11-16T01:27:33.083Z,97441.16
2022-11-16T01:30:38.406Z,97445.50
2022-11-16T01:33:47.656Z,97447.66
2022-11-16T01:36:57.702Z,97437.38
2022-11-16T01:40:05.506Z,97442.44
2022-11-16T01:43:17.473Z,97439.34
2022-11-16T01:46:23.373Z,97434.09
2022-11-16T01:49:36.320Z,97429.56
2022-11-16T01:52:43.850Z,97425.19
2022-11-16T01:55:49.771Z,97421.78
2022-11-16T01:59:18.004Z,97411.00
2022-11-16T02:02:22.454Z,97392.56
2022-11-16T02:05:47.737Z,97403.19
2022-11-16T02:09:24.767Z,97398.16
2022-11-16T02:13:01.084Z,97405.38
2022-11-16T02:16:28.243Z,97397.22
2022-11-16T02:20:01.826Z,97396.31
2022-11-16T02:23:45.081Z,97389.31
2022-11-16T02:27:27.272Z,97383.31
2022-11-16T02:30:33.394Z,97378.69
2022-11-16T02:33:42.234Z,97382.84
2022-11-16T02:36:50.774Z,97377.66
2022-11-16T02:39:59.464Z,97373.31
2022-11-16T02:43:08.621Z,97374.72
2022-11-16T02:46:20.690Z,97372.16
2022-11-16T02:49:26.671Z,97366.38
2022-11-16T02:52:31.045Z,97374.94
2022-11-16T02:55:37.333Z,97363.06
2022-11-16T02:58:41.438Z,97365.31
2022-11-16T03:01:53.453Z,97361.63
2022-11-16T03:05:02.633Z,97350.28
2022-11-16T03:08:19.593Z,97340.38
2022-11-16T03:11:41.294Z,97352.06
2022-11-16T03:14:50.356Z,97336.91
2022-11-16T03:17:56.275Z,97331.69
2022-11-16T03:21:11.191Z,97345.50
2022-11-16T03:24:15.802Z,97328.88
2022-11-16T03:27:31.369Z,97333.88
2022-11-16T03:30:41.638Z,97339.56
2022-11-16T03:33:51.649Z,97341.00
2022-11-16T03:37:15.092Z,97341.38
2022-11-16T03:40:21.602Z,97337.50
2022-11-16T03:43:28.667Z,97337.72
2022-11-16T03:46:32.305Z,97331.13
2022-11-16T03:49:55.978Z,97328.34
2022-11-16T03:53:00.906Z,97312.69
2022-11-16T03:56:05.458Z,97315.06
2022-11-16T03:59:09.079Z,97321.94
2022-11-16T04:02:13.052Z,97320.41
2022-11-16T04:05:36.154Z,97316.28
2022-11-16T04:08:58.160Z,97312.72
2022-11-16T04:12:19.205Z,97310.59
2022-11-16T04:15:41.554Z,97307.66
2022-11-16T04:19:02.983Z,97301.09
2022-11-16T04:22:34.442Z,97291.41
2022-11-16T04:25:41.284Z,97301.88
2022-11-16T04:28:50.482Z,97293.84
2022-11-16T04:32:11.336Z,97298.69
2022-11-16T04:35:32.532Z,97296.59
2022-11-16T04:38:37.902Z,97291.03
2022-11-16T04:41:59.231Z,97290.25
2022-11-16T04:45:23.861Z,97284.53
2022-11-16T04:48:29.870Z,97273.19
2022-11-16T04:51:33.552Z,97272.00
2022-11-16T04:54:39.223Z,97278.44
2022-11-16T04:57:43.230Z,97279.00
2022-11-16T05:00:50.235Z,97270.84
2022-11-16T05:03:54.237Z,97270.56
2022-11-16T05:06:58.750Z,97273.25
2022-11-16T05:10:05.459Z,97267.94
2022-11-16T05:13:09.602Z,97276.06
2022-11-16T05:16:13.166Z,97271.06
2022-11-16T05:19:34.399Z,97264.75
2022-11-16T05:22:38.418Z,97259.34
2022-11-16T05:25:44.541Z,97251.22
2022-11-16T05:28:48.039Z,97250.81
2022-11-16T05:31:51.899Z,97253.09
2022-11-16T05:34:55.796Z,97256.31
2022-11-16T05:38:01.310Z,97246.47
2022-11-16T05:41:08.107Z,97254.47
2022-11-16T05:44:12.169Z,97241.09
2022-11-16T05:47:16.171Z,97239.91
2022-11-16T05:50:20.332Z,97228.75
2022-11-16T05:53:36.479Z,97228.91
2022-11-16T05:56:43.377Z,97229.38
2022-11-16T05:59:46.886Z,97232.00
2022-11-16T06:02:51.587Z,97226.81
2022-11-16T06:06:00.111Z,97230.41
2022-11-16T06:09:06.164Z,97220.69
2022-11-16T06:12:12.294Z,97217.31
2022-11-16T06:15:16.354Z,97220.69
2022-11-16T06:18:19.987Z,97220.69
2022-11-16T06:21:25.057Z,97222.13
2022-11-16T06:24:29.872Z,97219.66
2022-11-16T06:27:36.130Z,97204.75
2022-11-16T06:30:40.650Z,97201.97
2022-11-16T06:33:45.464Z,97209.38
2022-11-16T06:36:57.330Z,97198.78
2022-11-16T06:40:01.562Z,97200.47
2022-11-16T06:43:10.477Z,97213.69
2022-11-16T06:46:14.813Z,97208.59
2022-11-16T06:49:18.664Z,97197.69
2022-11-16T06:52:23.374Z,97200.47
2022-11-16T06:55:27.382Z,97200.00
2022-11-16T06:58:33.789Z,97191.19
2022-11-16T07:01:37.738Z,97196.13
2022-11-16T07:04:47.660Z,97205.16
2022-11-16T07:07:55.399Z,97202.22
2022-11-16T07:11:04.452Z,97209.94
2022-11-16T07:14:11.832Z,97195.72
2022-11-16T07:17:15.923Z,97194.75
2022-11-16T07:20:19.558Z,97193.03
2022-11-16T07:23:24.266Z,97190.75
2022-11-16T07:26:28.920Z,97196.34
2022-11-16T07:29:43.645Z,97185.97
2022-11-16T07:33:05.699Z,97179.44
2022-11-16T07:36:44.666Z,97188.16
2022-11-16T07:39:48.197Z,97172.56
2022-11-16T07:42:52.630Z,97176.09
2022-11-16T07:49:49.025Z,97161.53
2022-11-16T07:52:56.114Z,97163.00
2022-11-16T07:55:59.874Z,97160.22
2022-11-16T07:59:06.090Z,97158.34
2022-11-16T08:02:15.375Z,97147.00
2022-11-16T08:05:20.486Z,97159.94
2022-11-16T08:08:26.447Z,97157.63
2022-11-16T08:11:29.909Z,97140.56
2022-11-16T08:14:33.882Z,97142.44
2022-11-16T08:17:39.557Z,97146.16
2022-11-16T08:20:46.644Z,97134.50
2022-11-16T08:23:55.261Z,97139.81
2022-11-16T08:27:02.328Z,97135.09
2022-11-16T08:30:09.884Z,97133.91
2022-11-16T08:33:17.925Z,97131.41
2022-11-16T08:36:22.050Z,97123.63
2022-11-16T08:39:26.501Z,97124.81
2022-11-16T08:42:30.192Z,97128.25
2022-11-16T08:45:34.584Z,97125.09
2022-11-16T08:48:39.752Z,97118.69
2022-11-16T08:51:44.194Z,97119.44
2022-11-16T08:54:47.879Z,97117.44
2022-11-16T08:57:53.542Z,97121.63
2022-11-16T09:00:57.111Z,97120.16
2022-11-16T09:04:02.293Z,97113.66
2022-11-16T09:07:05.667Z,97121.13
2022-11-16T09:10:10.423Z,97110.53
2022-11-16T09:13:13.889Z,97103.47
2022-11-16T09:16:20.709Z,97102.34
2022-11-16T09:19:25.639Z,97096.91
2022-11-16T09:22:29.652Z,97092.69
2022-11-16T09:25:33.082Z,97094.78
2022-11-16T09:28:37.151Z,97092.84
2022-11-16T09:31:40.748Z,97087.75
2022-11-16T09:34:46.439Z,97088.53
2022-11-16T09:37:50.787Z,97082.84
2022-11-16T09:40:59.031Z,97074.63
2022-11-16T09:44:13.578Z,97072.28
2022-11-16T09:47:21.963Z,97061.25
2022-11-16T09:50:42.677Z,97065.44
2022-11-16T09:53:50.595Z,97061.53
2022-11-16T09:57:00.664Z,97053.78
2022-11-16T10:00:15.634Z,97043.28
2022-11-16T10:03:20.505Z,97040.53
2022-11-16T10:06:36.981Z,97036.28
2022-11-16T10:09:41.384Z,97036.13
2022-11-16T10:12:51.592Z,97027.84
2022-11-16T10:16:08.179Z,97012.91
2022-11-16T10:19:22.739Z,97008.44
2022-11-16T10:22:46.254Z,97000.06
2022-11-16T10:25:55.863Z,97000.97
2022-11-16T10:29:28.152Z,96989.81
2022-11-16T10:32:38.190Z,96986.13
2022-11-16T10:35:47.412Z,96979.84
2022-11-16T10:38:53.383Z,96975.53
2022-11-16T10:42:07.238Z,96973.56
2022-11-16T10:45:20.753Z,96970.84
2022-11-16T10:48:37.542Z,96969.88
2022-11-16T10:51:41.970Z,96957.25
2022-11-16T10:54:47.089Z,96953.75
2022-11-16T10:57:59.257Z,96945.41
2022-11-16T11:01:03.076Z,96953.06
2022-11-16T11:04:16.198Z,96945.75
2022-11-16T11:07:30.599Z,96938.47
2022-11-16T11:10:37.674Z,96933.69
2022-11-16T11:14:10.185Z,96921.00
2022-11-16T11:17:19.134Z,96915.44
2022-11-16T11:20:25.043Z,96905.06
2022-11-16T11:23:29.217Z,96901.00
2022-11-16T11:26:37.630Z,96892.91
2022-11-16T11:29:44.222Z,96885.53
2022-11-16T11:32:48.481Z,96887.31
2022-11-16T11:36:01.855Z,96884.53
2022-11-16T11:39:08.484Z,96879.44
2022-11-16T11:42:24.545Z,96881.50
2022-11-16T11:45:36.431Z,96876.66
2022-11-16T11:48:49.394Z,96868.03
2022-11-16T11:51:55.958Z,96861.44
2022-11-16T11:55:01.541Z,96852.34
2022-11-16T11:58:08.105Z,96854.13
2022-11-16T12:01:35.467Z,96849.78
2022-11-16T12:05:24.419Z,96839.63
2022-11-16T12:08:48.062Z,96838.13
2022-11-16T12:12:02.650Z,96832.03
2022-11-16T12:15:28.103Z,96830.22
2022-11-16T12:18:46.440Z,96836.84
2022-11-16T12:22:04.330Z,96829.97
2022-11-16T12:25:21.970Z,96818.28
2022-11-16T12:28:44.918Z,96825.91
2022-11-16T12:32:07.425Z,96817.28
2022-11-16T12:35:33.058Z,96804.81
2022-11-16T12:38:55.244Z,96803.81
2022-11-16T12:42:26.905Z,96800.50
2022-11-16T12:45:50.632Z,96797.47
2022-11-16T12:49:27.696Z,96794.94
2022-11-16T12:53:05.435Z,96797.72
2022-11-16T12:56:21.091Z,96793.13
2022-11-16T12:59:45.065Z,96802.28
2022-11-16T13:03:11.526Z,96798.22
2022-11-16T13:06:21.194Z,96794.66
2022-11-16T13:09:28.848Z,96799.25
2022-11-16T13:12:33.786Z,96795.41
2022-11-16T13:15:40.560Z,96789.56
2022-11-16T13:18:45.410Z,96795.66
2022-11-16T13:21:56.270Z,96793.66
2022-11-16T13:25:05.920Z,96797.69
2022-11-16T13:28:23.055Z,96787.53
2022-11-16T13:31:34.686Z,96787.03
2022-11-16T13:34:40.896Z,96789.81
2022-11-16T13:37:49.764Z,96793.91
2022-11-16T13:40:53.527Z,96796.69
2022-11-16T13:43:57.462Z,96788.06
2022-11-16T13:47:06.059Z,96795.41
2022-11-16T13:50:19.953Z,96794.91
2022-11-16T13:54:24.980Z,96786.25
2022-11-16T13:56:53.031Z,96789.31
2022-11-16T14:00:11.626Z,96795.41
2022-11-16T14:03:31.664Z,96791.88
2022-11-16T14:06:59.410Z,96792.38
2022-11-16T14:10:07.932Z,96800.75
2022-11-16T14:13:39.363Z,96795.41
2022-11-16T14:16:48.900Z,96799.50
2022-11-16T14:19:57.742Z,96796.44
2022-11-16T14:23:36.922Z,96795.19
2022-11-16T14:26:58.341Z,96790.84
2022-11-16T14:30:15.138Z,96781.94
2022-11-16T14:33:31.307Z,96781.22
2022-11-16T14:36:42.650Z,96776.66
2022-11-16T14:39:47.047Z,96784.25
2022-11-16T14:43:15.273Z,96764.97
2022-11-16T14:46:24.208Z,96759.38
2022-11-16T14:49:29.190Z,96748.94
2022-11-16T14:52:39.707Z,96753.78
2022-11-16T14:55:44.959Z,96742.84
2022-11-16T14:58:54.519Z,96745.13
2022-11-16T15:01:58.300Z,96743.34
2022-11-16T15:05:02.329Z,96742.59
2022-11-16T15:08:18.499Z,96740.81
2022-11-16T15:11:47.361Z,96747.16
2022-11-16T15:14:55.390Z,96742.84
2022-11-16T15:18:15.095Z,96740.31
2022-11-16T15:21:23.590Z,96741.56
2022-11-16T15:24:31.072Z,96739.03
2022-11-16T15:27:38.175Z,96740.81
2022-11-16T15:30:46.849Z,96739.53
2022-11-16T15:33:51.114Z,96740.81
2022-11-16T15:36:55.152Z,96735.75
2022-11-16T15:40:00.221Z,96741.34
2022-11-16T15:43:07.003Z,96736.22
2022-11-16T15:49:45.382Z,96729.38
2022-11-16T15:52:53.099Z,96726.09
2022-11-16T15:55:57.009Z,96717.97
2022-11-16T15:59:10.635Z,96720.50
2022-11-16T16:02:20.142Z,96721.28
2022-11-16T16:05:34.831Z,96713.66
2022-11-16T16:08:41.751Z,96705.28
2022-11-16T16:11:45.263Z,96697.38
2022-11-16T16:14:50.205Z,96709.06
2022-11-16T16:17:55.665Z,96709.84
2022-11-16T16:20:59.542Z,96704.75
2022-11-16T16:24:03.839Z,96712.38
2022-11-16T16:27:13.294Z,96707.31
2022-11-16T16:30:18.088Z,96696.38
2022-11-16T16:33:28.552Z,96705.28
2022-11-16T16:36:32.183Z,96698.66
2022-11-16T16:39:36.246Z,96700.69
2022-11-16T16:42:40.935Z,96697.63
2022-11-16T16:45:45.527Z,96684.69
2022-11-16T16:48:50.218Z,96690.28
2022-11-16T16:51:54.372Z,96692.06
2022-11-16T16:54:57.784Z,96684.69
2022-11-16T16:58:03.156Z,96670.47
2022-11-16T17:01:07.236Z,96669.22
2022-11-16T17:04:12.329Z,96664.63
2022-11-16T17:07:16.264Z,96655.78
2022-11-16T17:10:21.301Z,96647.66
2022-11-16T17:13:24.715Z,96640.78
2022-11-16T17:16:28.357Z,96646.09
2022-11-16T17:19:33.245Z,96634.94
2022-11-16T17:22:37.563Z,96634.94
2022-11-16T17:25:41.000Z,96638.75
2022-11-16T17:28:44.722Z,96641.56
2022-11-16T17:31:48.896Z,96642.06
2022-11-16T17:34:54.126Z,96645.13
2022-11-16T17:37:58.717Z,96635.72
2022-11-16T17:41:06.936Z,96628.09
2022-11-16T17:44:10.271Z,96635.19
2022-11-16T17:47:13.935Z,96615.91
2022-11-16T17:50:18.755Z,96609.06
2022-11-16T17:53:22.418Z,96601.94
2022-11-16T17:56:28.062Z,96606.03
2022-11-16T17:59:31.714Z,96599.66
2022-11-16T18:02:35.163Z,96596.09
2022-11-16T18:05:40.328Z,96604.00
2022-11-16T18:08:44.933Z,96599.66
2022-11-16T18:11:48.696Z,96601.94
2022-11-16T18:15:21.334Z,96599.41
2022-11-16T18:18:18.022Z,96597.13
2022-11-16T18:21:23.145Z,96594.34
2022-11-16T18:24:27.215Z,96589.78
2022-11-16T18:27:30.886Z,96594.59
2022-11-16T18:30:34.710Z,96590.53
2022-11-16T18:33:39.412Z,96586.72
2022-11-16T18:36:46.390Z,96577.34
2022-11-16T18:39:50.086Z,96569.22
2022-11-16T18:42:54.024Z,96569.72
2022-11-16T18:45:58.157Z,96566.94
2022-11-16T18:49:02.450Z,96566.94
2022-11-16T18:52:07.561Z,96565.91
2022-11-16T18:55:11.612Z,96565.16
2022-11-16T18:58:43.374Z,96565.44
2022-11-16T19:01:38.779Z,96570.50
2022-11-16T19:04:42.730Z,96563.63
2022-11-16T19:07:47.835Z,96559.84
2022-11-16T19:10:51.213Z,96567.72
2022-11-16T19:13:57.143Z,96557.53
2022-11-16T19:17:00.977Z,96551.94
2022-11-16T19:20:05.047Z,96550.72
2022-11-16T19:23:09.838Z,96547.16
2022-11-16T19:26:14.954Z,96551.72
2022-11-16T19:29:18.333Z,96549.72
2022-11-16T19:32:22.044Z,96547.41
2022-11-16T19:35:25.390Z,96541.81
2022-11-16T19:38:31.918Z,96529.41
2022-11-16T19:41:35.534Z,96536.50
2022-11-16T19:44:39.332Z,96530.13
2022-11-16T19:47:42.733Z,96533.72
2022-11-16T19:50:46.498Z,96527.63
2022-11-16T19:53:51.645Z,96527.38
2022-11-16T19:56:55.511Z,96514.91
2022-11-16T19:59:58.971Z,96512.91
2022-11-16T20:03:02.674Z,96513.19
2022-11-16T20:06:08.602Z,96513.19
2022-11-16T20:09:13.697Z,96514.16
2022-11-16T20:12:17.067Z,96505.53
2022-11-16T20:15:22.658Z,96501.25
2022-11-16T20:18:26.014Z,96499.19
2022-11-16T20:21:33.170Z,96496.44
2022-11-16T20:24:37.941Z,96499.47
2022-11-16T20:27:41.576Z,96502.50
2022-11-16T20:30:47.208Z,96504.03
2022-11-16T20:33:52.541Z,96499.22
2022-11-16T20:36:56.189Z,96497.16
2022-11-16T20:40:02.351Z,96494.63
2022-11-16T20:43:09.142Z,96495.13
2022-11-16T20:46:15.211Z,96490.06
2022-11-16T20:49:18.596Z,96487.28
2022-11-16T20:52:22.375Z,96486.25
2022-11-16T20:55:27.100Z,96494.88
2022-11-16T20:58:31.239Z,96489.56
2022-11-16T21:01:35.167Z,96485.72
2022-11-16T21:04:38.952Z,96487.28
2022-11-16T21:07:43.915Z,96488.25
2022-11-16T21:10:49.925Z,96487.53
2022-11-16T21:14:11.612Z,96493.88
2022-11-16T21:17:15.242Z,96491.34
2022-11-16T21:20:28.147Z,96493.13
2022-11-16T21:23:34.645Z,96496.94
2022-11-16T21:26:39.843Z,96500.47
2022-11-16T21:29:43.620Z,96509.34
2022-11-16T21:32:47.277Z,96508.06
2022-11-16T21:35:53.077Z,96504.28
2022-11-16T21:38:59.264Z,96515.19
2022-11-16T21:42:05.675Z,96519.97
2022-11-16T21:45:11.020Z,96513.16
2022-11-16T21:48:15.499Z,96527.88
2022-11-16T21:51:20.375Z,96518.22
2022-11-16T21:54:45.056Z,96516.97
2022-11-16T21:57:50.256Z,96520.25
2022-11-16T22:00:56.471Z,96516.44
2022-11-16T22:04:17.985Z,96511.13
2022-11-16T22:07:34.325Z,96501.75
2022-11-16T22:10:38.883Z,96498.94
2022-11-16T22:13:45.159Z,96492.09
2022-11-16T22:16:49.057Z,96500.97
2022-11-16T22:19:53.865Z,96495.41
2022-11-16T22:22:57.793Z,96487.25
2022-11-16T22:26:04.020Z,96482.22
2022-11-16T22:29:09.906Z,96480.69
2022-11-16T22:32:15.095Z,96481.69
2022-11-16T22:35:19.611Z,96473.06
2022-11-16T22:38:24.708Z,96467.50
2022-11-16T22:41:30.891Z,96461.13
2022-11-16T22:44:36.637Z,96460.88
2022-11-16T22:47:42.010Z,96452.22
2022-11-16T22:50:46.311Z,96440.03
2022-11-16T22:53:53.906Z,96452.97
2022-11-16T22:57:17.223Z,96445.59
2022-11-16T23:00:22.839Z,96439.75
2022-11-16T23:03:27.491Z,96434.44
2022-11-16T23:06:31.270Z,96433.47
2022-11-16T23:09:36.314Z,96416.44
2022-11-16T23:12:57.962Z,96430.63
2022-11-16T23:16:07.377Z,96429.88
2022-11-16T23:19:27.485Z,96430.63
2022-11-16T23:22:49.668Z,96424.84
2022-11-16T23:26:11.732Z,96414.41
2022-11-16T23:29:16.988Z,96414.91
2022-11-16T23:32:22.441Z,96413.91
2022-11-16T23:35:26.760Z,96409.63
2022-11-16T23:38:30.939Z,96409.09
2022-11-16T23:41:52.923Z,96398.94
2022-11-16T23:44:57.132Z,96396.13
2022-11-16T23:48:03.025Z,96409.34
2022-11-16T23:51:07.134Z,96413.66
2022-11-16T23:54:11.633Z,96407.59
2022-11-16T23:57:16.053Z,96407.59
